Wewahitchka, Florida
Current Conditions -  °F | °C
As of 10:58 AM on Thursday 23 Oct 2014 (Local Time) from KPAM Reporting Station
Clear Clear  
Wind Chill: 69°   Ceiling: Unl
Heat Index: 69°   Visibility: 10mi
Dew Point: 48°   Wind: 9mph
Humidity: 48%   Direction: 100°E
Pressure: 30.09"   Gusts: NA
Location:  30.11°N, 85.2°W
Report Text: KPAM 231558Z AUTO 10008KT 10SM CLR 21/09 A3009 RMK AO2 SLP193 T02050091 $
Loading
Personal Weather Stations






























Interactive Weather Map
Tropical Storm Tracking
New forecast layout! Learn more

10-Day Weather Forecast

Advertisements
Track Severe Weather on mobile